Time;durP1;ratioP1;P1;durP2;ratioP2;P2;SDS_P1;SDS_P2;PMS_P1;PMS_P2;Temp;Humidity;BMP_temperature;BMP_pressure;BME280_temperature;BME280_humidity;BME280_pressure;Samples;Min_cycle;Max_cycle;Signal;HPM_P1;HPM_P2
2021/11/13 00:01:05;;;;;;;;;5.50;4.75;;;;;22.02;41.62;101216.06;4972009;28;45501;-63
2021/11/13 00:03:30;;;;;;;;;4.50;4.50;;;;;22.20;41.54;101233.56;4971322;28;46644;-63
2021/11/13 00:05:56;;;;;;;;;4.00;4.00;;;;;22.20;41.92;101229.06;4973364;28;45450;-63
2021/11/13 00:08:21;;;;;;;;;4.75;4.00;;;;;22.18;41.91;101228.44;4973961;28;45327;-63
2021/11/13 00:10:47;;;;;;;;;6.75;4.00;;;;;22.12;41.28;101213.25;4974888;28;45540;-63
2021/11/13 00:13:13;;;;;;;;;5.75;5.50;;;;;22.17;41.34;101217.00;4968689;28;46876;-63
2021/11/13 00:15:39;;;;;;;;;5.00;4.75;;;;;22.16;41.91;101218.00;4973044;28;45387;-63
2021/11/13 00:18:04;;;;;;;;;6.75;4.25;;;;;22.18;41.38;101202.75;4973855;28;45544;-63
2021/11/13 00:20:30;;;;;;;;;5.25;5.25;;;;;22.18;41.43;101194.81;4971152;28;45589;-63
2021/11/13 00:22:58;;;;;;;;;6.00;6.00;;;;;22.17;41.47;101197.66;4973551;28;46041;-63
2021/11/13 00:25:24;;;;;;;;;4.25;4.25;;;;;22.18;41.99;101194.81;4970578;28;45631;-63
2021/11/13 00:27:49;;;;;;;;;8.00;5.00;;;;;22.20;41.76;101199.94;4973573;28;45473;-63
2021/11/13 00:30:15;;;;;;;;;6.25;6.25;;;;;22.18;42.05;101194.81;4972876;28;45481;-63
2021/11/13 00:32:42;;;;;;;;;5.00;5.00;;;;;22.22;41.46;101192.66;4972728;28;45343;-62
2021/11/13 00:35:08;;;;;;;;;5.00;3.50;;;;;22.16;41.43;101193.31;4973378;28;45327;-62
2021/11/13 00:37:33;;;;;;;;;5.00;4.00;;;;;22.18;42.17;101202.75;4965289;28;45355;-64
2021/11/13 00:39:59;;;;;;;;;4.25;4.25;;;;;22.18;41.54;101209.88;4959063;28;45381;-63
2021/11/13 00:42:24;;;;;;;;;4.75;4.75;;;;;22.13;41.75;101207.75;4956695;28;45470;-63
2021/11/13 00:44:50;;;;;;;;;4.75;4.00;;;;;22.15;41.66;101211.03;4957349;28;45365;-63
2021/11/13 00:47:16;;;;;;;;;5.00;5.00;;;;;22.14;41.61;101209.41;4970498;28;45405;-62
2021/11/13 00:49:42;;;;;;;;;5.25;5.25;;;;;22.18;41.59;101217.81;4959850;27;45523;-63
2021/11/13 00:52:08;;;;;;;;;4.25;4.25;;;;;22.16;41.38;101212.72;4956287;28;47207;-63
2021/11/13 00:54:34;;;;;;;;;2.25;2.00;;;;;22.21;41.84;101219.31;4958051;28;45619;-64
2021/11/13 00:57:01;;;;;;;;;6.75;6.00;;;;;22.17;41.24;101197.66;4957188;28;45419;-63
2021/11/13 00:59:26;;;;;;;;;4.25;4.00;;;;;22.22;41.73;101199.78;4958791;28;45353;-63
2021/11/13 01:01:52;;;;;;;;;5.00;4.25;;;;;22.22;41.64;101205.91;4957555;28;45524;-63
2021/11/13 01:04:17;;;;;;;;;6.25;5.25;;;;;22.20;41.19;101185.88;4959380;28;45470;-63
2021/11/13 01:06:43;;;;;;;;;4.75;4.00;;;;;22.24;41.05;101195.13;4959062;28;45604;-63
2021/11/13 01:09:08;;;;;;;;;5.00;4.00;;;;;22.17;41.06;101177.25;4955160;28;45578;-63
2021/11/13 01:11:34;;;;;;;;;6.00;5.00;;;;;22.24;41.53;101195.13;4958510;28;46581;-63
2021/11/13 01:14:01;;;;;;;;;3.25;3.00;;;;;22.18;40.85;101192.16;4959121;28;45555;-63
2021/11/13 01:16:26;;;;;;;;;4.50;3.00;;;;;22.21;40.89;101195.47;4984762;28;45415;-63
2021/11/13 01:18:53;;;;;;;;;7.75;4.25;;;;;22.22;40.88;101181.22;4971707;28;45648;-63
2021/11/13 01:21:19;;;;;;;;;6.00;4.25;;;;;22.21;41.13;101175.09;4970938;28;47311;-63
2021/11/13 01:23:44;;;;;;;;;5.00;4.00;;;;;22.21;40.92;101163.66;4972695;28;45329;-64
2021/11/13 01:26:09;;;;;;;;;5.00;3.00;;;;;22.18;41.25;101165.66;4972228;28;45495;-63
2021/11/13 01:28:35;;;;;;;;;5.00;4.00;;;;;22.21;40.99;101171.59;4971424;28;45328;-63
2021/11/13 01:31:00;;;;;;;;;5.75;4.75;;;;;22.19;41.14;101158.53;4971272;28;46538;-63
2021/11/13 01:33:26;;;;;;;;;3.25;3.25;;;;;22.17;41.03;101161.34;4969802;28;47068;-63
2021/11/13 01:35:51;;;;;;;;;6.50;4.25;;;;;22.18;41.41;101160.34;4971997;28;45419;-63
2021/11/13 01:38:18;;;;;;;;;3.50;3.50;;;;;22.18;41.04;101155.06;4971239;28;45489;-63
2021/11/13 01:40:44;;;;;;;;;6.75;3.25;;;;;22.18;41.03;101147.09;4970996;28;46330;-63
2021/11/13 01:43:09;;;;;;;;;3.50;3.00;;;;;22.18;41.41;101160.34;4970823;28;45226;-63
2021/11/13 01:45:35;;;;;;;;;4.25;3.25;;;;;22.14;40.90;101163.53;4971129;28;45392;-63
2021/11/13 01:48:00;;;;;;;;;4.75;4.25;;;;;22.15;40.99;101159.88;4971317;28;45251;-63
2021/11/13 01:50:33;;;;;;;;;4.75;4.25;;;;;22.16;41.49;101167.66;4972763;28;46293;-63
2021/11/13 01:52:58;;;;;;;;;4.75;2.75;;;;;22.17;41.33;101174.59;4971028;28;45482;-63
2021/11/13 01:55:24;;;;;;;;;4.50;4.50;;;;;22.12;41.11;101165.53;4971137;28;45971;-63
2021/11/13 01:57:51;;;;;;;;;4.25;3.00;;;;;22.17;41.12;101184.41;4970948;28;45504;-63
2021/11/13 02:00:19;;;;;;;;;5.00;4.00;;;;;22.17;41.29;101181.75;4970940;28;45626;-63
2021/11/13 02:02:44;;;;;;;;;3.00;3.00;;;;;22.10;41.08;101171.00;4970959;28;45459;-63
2021/11/13 02:05:10;;;;;;;;;3.00;2.75;;;;;22.15;40.99;101176.59;4971078;28;45396;-63
2021/11/13 02:07:36;;;;;;;;;2.00;2.00;;;;;22.15;41.37;101176.59;4971051;28;45472;-64
2021/11/13 02:10:05;;;;;;;;;3.75;3.75;;;;;22.14;41.03;101164.38;4970481;28;46611;-63
2021/11/13 02:12:30;;;;;;;;;8.25;6.25;;;;;22.13;40.77;101173.31;4969391;28;45357;-63
2021/11/13 02:14:56;;;;;;;;;4.00;4.00;;;;;22.14;41.33;101174.97;4974657;28;45647;-63
2021/11/13 02:17:21;;;;;;;;;3.00;3.00;;;;;22.12;40.81;101165.53;4973731;28;45340;-63
2021/11/13 02:19:48;;;;;;;;;3.00;3.00;;;;;22.15;40.96;101167.81;4973059;28;45409;-63
2021/11/13 02:22:13;;;;;;;;;3.75;2.75;;;;;22.15;41.14;101166.00;4973569;28;45549;-63
2021/11/13 02:24:38;;;;;;;;;5.75;5.00;;;;;22.13;41.30;101151.28;4973714;28;47769;-63
2021/11/13 02:27:04;;;;;;;;;2.75;2.75;;;;;22.15;41.30;101162.50;4973907;28;45563;-63
2021/11/13 02:29:30;;;;;;;;;4.50;4.00;;;;;22.13;41.19;101164.53;4975487;28;46377;-63
2021/11/13 02:31:55;;;;;;;;;3.50;3.50;;;;;22.15;40.96;101167.81;4973327;28;45446;-63
2021/11/13 02:34:20;;;;;;;;;3.00;3.00;;;;;22.10;41.26;101167.50;4973262;28;45390;-63
2021/11/13 02:36:46;;;;;;;;;5.00;4.25;;;;;22.14;41.36;101172.31;4973632;28;45353;-63
2021/11/13 02:39:13;;;;;;;;;3.50;3.50;;;;;22.16;41.28;101172.97;4973622;28;46737;-63
2021/11/13 02:41:39;;;;;;;;;3.75;3.00;;;;;22.15;40.86;101166.00;4971474;28;45430;-63
2021/11/13 02:44:05;;;;;;;;;5.00;4.00;;;;;22.16;40.76;101150.94;4973547;28;45647;-63
2021/11/13 02:46:33;;;;;;;;;3.50;3.25;;;;;22.15;41.21;101158.03;4973367;28;45461;-63
2021/11/13 02:49:00;;;;;;;;;5.75;4.00;;;;;22.16;40.81;101154.41;4972739;28;45458;-63
2021/11/13 02:51:25;;;;;;;;;4.00;4.00;;;;;22.14;40.75;101152.94;4971838;28;45583;-63
2021/11/13 02:53:52;;;;;;;;;4.00;4.00;;;;;22.17;41.19;101155.25;4975478;28;45457;-64
2021/11/13 02:56:18;;;;;;;;;3.00;3.00;;;;;22.14;40.68;101161.72;4973231;28;45296;-63
2021/11/13 02:58:43;;;;;;;;;2.50;2.50;;;;;22.16;41.17;101161.53;4972966;28;45782;-63
2021/11/13 03:01:13;;;;;;;;;3.75;3.00;;;;;22.15;40.97;101165.16;4972662;28;45222;-63
2021/11/13 03:03:39;;;;;;;;;3.25;3.00;;;;;22.14;40.88;101166.19;4973460;28;45426;-63
2021/11/13 03:06:11;;;;;;;;;4.00;2.75;;;;;22.15;41.24;101165.16;4973288;28;45661;-63
2021/11/13 03:08:38;;;;;;;;;4.00;4.00;;;;;22.14;40.77;101174.97;4974919;28;45347;-63
2021/11/13 03:11:07;;;;;;;;;4.00;2.00;;;;;22.10;40.63;101165.69;4973104;28;45339;-63
2021/11/13 03:13:34;;;;;;;;;3.25;3.25;;;;;22.13;41.24;101156.56;4972850;28;45323;-63
2021/11/13 03:16:02;;;;;;;;;3.00;3.00;;;;;22.13;41.09;101159.22;4972631;28;45403;-63
2021/11/13 03:18:28;;;;;;;;;3.25;2.25;;;;;22.13;40.65;101161.88;4972850;28;46386;-63
2021/11/13 03:20:54;;;;;;;;;3.25;3.25;;;;;22.12;41.19;101155.75;4973274;28;45380;-64
2021/11/13 03:23:20;;;;;;;;;3.50;3.50;;;;;22.14;41.07;101153.75;4974740;28;45383;-63
2021/11/13 03:25:53;;;;;;;;;2.00;2.00;;;;;22.07;40.75;101150.13;4971840;28;45425;-63
2021/11/13 03:28:23;;;;;;;;;6.00;3.00;;;;;22.07;41.10;101152.78;4991085;28;47532;-63
2021/11/13 03:30:48;;;;;;;;;1.75;1.75;;;;;22.11;41.28;101158.56;4971062;28;45388;-63
2021/11/13 03:33:14;;;;;;;;;3.75;3.75;;;;;22.13;40.72;101175.94;4971554;28;45447;-63
2021/11/13 03:35:40;;;;;;;;;3.50;2.50;;;;;22.07;40.89;101161.56;4975396;28;45401;-63
2021/11/13 03:38:07;;;;;;;;;2.00;2.00;;;;;22.13;40.75;101170.66;4972864;28;46989;-63
2021/11/13 03:40:34;;;;;;;;;4.25;3.25;;;;;22.11;41.24;101169.16;4972729;28;45634;-63
2021/11/13 03:42:59;;;;;;;;;5.00;3.00;;;;;22.08;40.52;101162.41;4972526;28;45643;-63
2021/11/13 03:45:26;;;;;;;;;2.00;2.00;;;;;22.13;40.96;101170.66;4972396;28;45603;-63
2021/11/13 03:47:53;;;;;;;;;3.00;3.00;;;;;21.91;40.62;101135.97;4973403;28;46569;-63
2021/11/13 03:50:18;;;;;;;;;4.75;2.00;;;;;22.10;40.71;101164.84;4972794;28;45481;-63
2021/11/13 03:52:44;;;;;;;;;3.50;3.25;;;;;22.12;41.23;101170.84;4972635;28;45512;-62
2021/11/13 03:55:09;;;;;;;;;3.00;3.00;;;;;22.07;40.86;101164.22;4972580;28;45453;-63
2021/11/13 03:57:35;;;;;;;;;4.75;4.50;;;;;22.12;40.47;101168.19;4972621;28;45931;-63
2021/11/13 04:00:00;;;;;;;;;2.00;2.00;;;;;22.11;40.77;101172.66;4972300;28;45391;-63
2021/11/13 04:02:26;;;;;;;;;4.00;2.25;;;;;22.07;41.27;101174.81;4974625;28;45371;-63
2021/11/13 04:04:51;;;;;;;;;3.25;3.25;;;;;22.12;40.58;101184.88;4972580;28;45515;-63
2021/11/13 04:07:16;;;;;;;;;3.75;1.50;;;;;22.12;40.78;101176.94;4972182;28;45348;-63
2021/11/13 04:09:42;;;;;;;;;2.00;2.00;;;;;22.13;40.75;101188.38;4970790;28;45323;-63
2021/11/13 04:12:10;;;;;;;;;4.25;3.00;;;;;22.07;40.81;101192.53;4971781;28;45294;-63
2021/11/13 04:14:36;;;;;;;;;2.00;2.00;;;;;22.13;40.88;101206.91;4975113;28;45801;-63
2021/11/13 04:17:03;;;;;;;;;4.50;2.50;;;;;22.12;41.13;101195.50;4972153;28;45465;-63
2021/11/13 04:19:28;;;;;;;;;2.75;2.75;;;;;22.13;40.56;101189.19;4972036;28;45375;-63
2021/11/13 04:21:54;;;;;;;;;2.00;2.00;;;;;22.06;41.12;101181.13;4972128;28;45410;-63
2021/11/13 04:24:20;;;;;;;;;4.00;2.50;;;;;22.12;41.05;101202.63;4972599;28;45399;-63
2021/11/13 04:26:46;;;;;;;;;3.00;3.00;;;;;22.11;40.39;101199.16;4973488;28;45467;-63
2021/11/13 04:29:12;;;;;;;;;4.00;2.25;;;;;22.10;40.70;101200.13;4972095;28;45332;-63
2021/11/13 04:31:37;;;;;;;;;4.50;2.75;;;;;22.12;41.13;101211.38;4972319;28;45371;-63
2021/11/13 04:34:07;;;;;;;;;2.00;2.00;;;;;22.11;40.61;101204.44;4972187;28;45782;-63
2021/11/13 04:36:37;;;;;;;;;2.50;1.75;;;;;22.11;41.04;101196.50;4971846;28;47283;-63
2021/11/13 04:39:09;;;;;;;;;2.00;2.00;;;;;22.13;41.06;101204.28;4972107;28;45358;-63
2021/11/13 04:41:36;;;;;;;;;2.00;2.00;;;;;22.14;40.99;101201.47;4973989;28;45200;-63
2021/11/13 04:44:02;;;;;;;;;3.50;3.00;;;;;22.13;40.92;101215.69;4971487;28;45331;-63
2021/11/13 04:46:27;;;;;;;;;2.00;2.00;;;;;22.13;40.58;101214.88;4971701;28;47582;-63
2021/11/13 04:48:53;;;;;;;;;1.75;1.75;;;;;22.14;40.70;101211.22;4970175;28;45371;-63
2021/11/13 04:51:18;;;;;;;;;1.50;1.50;;;;;22.12;40.78;101198.13;4970760;28;45422;-63
2021/11/13 04:53:44;;;;;;;;;3.50;2.00;;;;;22.13;41.10;101194.50;4973379;28;45556;-63
2021/11/13 04:56:09;;;;;;;;;2.00;2.00;;;;;22.13;40.64;101194.50;4970964;28;46486;-63
2021/11/13 04:58:35;;;;;;;;;2.00;2.00;;;;;22.09;40.96;101187.91;4971417;28;45384;-63
2021/11/13 05:01:01;;;;;;;;;2.00;2.00;;;;;22.11;41.27;101204.44;4990409;28;45591;-63
2021/11/13 05:03:26;;;;;;;;;3.00;1.75;;;;;22.07;41.10;101196.00;4971875;28;45358;-63
2021/11/13 05:05:52;;;;;;;;;1.50;1.50;;;;;22.11;41.17;101209.75;4972345;28;47164;-63
2021/11/13 05:08:17;;;;;;;;;2.50;2.00;;;;;22.06;40.80;101199.69;4973127;28;45414;-63
2021/11/13 05:10:43;;;;;;;;;3.00;3.00;;;;;22.10;41.02;101210.75;4971641;28;45468;-63
2021/11/13 05:13:08;;;;;;;;;2.00;2.00;;;;;22.12;40.76;101221.97;4971358;28;45888;-63
2021/11/13 05:15:34;;;;;;;;;1.50;1.50;;;;;22.12;41.10;101218.53;4971693;28;45584;-63
2021/11/13 05:18:01;;;;;;;;;2.25;1.50;;;;;22.12;40.62;101221.97;4971642;28;45392;-63
2021/11/13 05:20:26;;;;;;;;;2.00;2.00;;;;;22.05;40.64;101208.59;4973529;28;45390;-63
2021/11/13 05:22:51;;;;;;;;;2.00;2.00;;;;;22.10;41.29;101231.09;4971420;28;45369;-63
2021/11/13 05:25:20;;;;;;;;;1.75;1.75;;;;;22.07;41.04;101226.97;4971258;28;45433;-64
2021/11/13 05:27:47;;;;;;;;;2.75;2.00;;;;;22.07;40.68;101225.16;4969593;28;45304;-63
2021/11/13 05:30:14;;;;;;;;;1.00;1.00;;;;;21.99;40.60;101211.94;4970098;28;45447;-63
2021/11/13 05:32:41;;;;;;;;;1.75;1.75;;;;;22.11;41.10;101241.56;4973667;28;45343;-63
2021/11/13 05:35:08;;;;;;;;;1.25;1.25;;;;;22.11;40.74;101241.56;4971192;28;49316;-63
2021/11/13 05:37:33;;;;;;;;;1.50;1.50;;;;;22.10;40.83;101239.06;4971126;28;45390;-63
2021/11/13 05:39:59;;;;;;;;;2.50;2.00;;;;;22.06;40.90;101226.16;4971236;28;45407;-63
2021/11/13 05:42:24;;;;;;;;;2.00;2.00;;;;;22.05;40.66;101221.03;4971010;28;45409;-63
2021/11/13 05:44:50;;;;;;;;;2.00;2.00;;;;;22.06;40.61;101225.34;4972280;28;46567;-63
2021/11/13 05:47:15;;;;;;;;;2.00;2.00;;;;;22.09;40.94;101238.25;4971439;28;45473;-63
2021/11/13 05:49:41;;;;;;;;;2.75;2.75;;;;;21.96;40.71;101223.69;4971045;28;45564;-63
2021/11/13 05:52:07;;;;;;;;;5.50;1.50;;;;;22.10;40.69;101237.25;4971070;28;45359;-63
2021/11/13 05:54:33;;;;;;;;;3.00;3.00;;;;;22.12;41.13;101250.34;4971156;28;46462;-63
2021/11/13 05:56:58;;;;;;;;;2.25;1.50;;;;;22.10;40.93;101239.88;4970620;28;47209;-63
2021/11/13 05:59:24;;;;;;;;;4.00;2.00;;;;;22.12;40.64;101248.50;4973222;28;45394;-63
2021/11/13 06:01:49;;;;;;;;;2.75;2.75;;;;;22.12;40.63;101245.03;4970992;28;45360;-63
2021/11/13 06:04:14;;;;;;;;;2.50;2.50;;;;;22.11;40.88;101241.56;4970826;28;45834;-63
2021/11/13 06:06:40;;;;;;;;;3.00;3.00;;;;;22.12;40.87;101240.53;4969496;28;45450;-63
2021/11/13 06:09:05;;;;;;;;;2.25;1.50;;;;;22.06;40.51;101238.59;4970589;28;45497;-63
2021/11/13 06:11:31;;;;;;;;;2.00;1.00;;;;;22.12;40.91;101247.69;4971784;28;45347;-63
2021/11/13 06:13:57;;;;;;;;;1.00;1.00;;;;;22.12;41.02;101256.44;4970490;28;45869;-63
2021/11/13 06:16:22;;;;;;;;;2.00;1.75;;;;;22.12;40.50;101255.63;4970536;28;45378;-63
2021/11/13 06:18:48;;;;;;;;;1.00;1.00;;;;;22.09;40.89;101251.50;4970772;28;45453;-63
2021/11/13 06:21:13;;;;;;;;;3.00;1.50;;;;;22.13;40.82;101259.91;4970643;28;45473;-63
2021/11/13 06:23:40;;;;;;;;;2.75;2.75;;;;;22.10;41.18;101258.44;4972844;28;46758;-63
2021/11/13 06:26:06;;;;;;;;;1.75;1.75;;;;;22.12;40.87;101269.69;4970049;28;45414;-63
2021/11/13 06:28:32;;;;;;;;;1.25;1.25;;;;;22.12;40.75;101269.69;4970408;28;45388;-63
2021/11/13 06:30:58;;;;;;;;;1.00;1.00;;;;;22.09;41.02;101269.22;4970381;28;45367;-63
2021/11/13 06:33:24;;;;;;;;;2.00;2.00;;;;;22.10;41.03;101265.56;4970329;28;46167;-63
2021/11/13 06:35:49;;;;;;;;;1.75;1.75;;;;;22.12;40.66;101276.84;4971486;28;45233;-63
2021/11/13 06:38:15;;;;;;;;;1.00;1.00;;;;;22.07;40.92;101264.91;4971653;28;45387;-63
2021/11/13 06:40:40;;;;;;;;;2.00;2.00;;;;;22.11;40.81;101277.81;4969878;28;45579;-63
2021/11/13 06:43:06;;;;;;;;;2.75;2.75;;;;;22.13;40.93;101283.78;4970070;28;45561;-63
2021/11/13 06:45:32;;;;;;;;;2.00;2.00;;;;;22.10;41.04;101289.41;4968970;28;45370;-63
2021/11/13 06:47:57;;;;;;;;;3.00;1.00;;;;;22.07;41.13;101286.09;4969831;28;45609;-63
2021/11/13 06:50:23;;;;;;;;;2.00;2.00;;;;;21.94;41.14;101267.25;4970274;28;45310;-63
2021/11/13 06:52:48;;;;;;;;;2.75;1.75;;;;;22.03;41.01;101283.97;4969943;28;46718;-63
2021/11/13 06:55:15;;;;;;;;;1.00;1.00;;;;;22.11;40.76;101302.50;4969690;28;45481;-63
2021/11/13 06:57:42;;;;;;;;;1.00;1.00;;;;;22.11;40.64;101289.25;4970303;28;45308;-64
2021/11/13 07:00:14;;;;;;;;;2.75;1.00;;;;;22.07;40.84;101293.22;4971340;28;45348;-63
2021/11/13 07:02:39;;;;;;;;;3.00;1.50;;;;;22.09;40.64;101293.91;4971091;28;45363;-63
2021/11/13 07:05:06;;;;;;;;;0.50;0.50;;;;;21.90;41.04;101268.59;4973056;28;45445;-63
2021/11/13 07:07:33;;;;;;;;;2.00;2.00;;;;;22.03;40.46;101289.25;4973309;27;45495;-63
2021/11/13 07:10:00;;;;;;;;;0.00;0.00;;;;;22.09;41.02;101306.31;4972679;28;45450;-63
2021/11/13 07:12:27;;;;;;;;;1.50;1.00;;;;;22.09;40.78;101315.09;4972955;28;46245;-63
2021/11/13 07:14:52;;;;;;;;;2.25;1.50;;;;;22.10;40.62;101314.09;4973916;28;45565;-63
2021/11/13 07:17:18;;;;;;;;;1.00;1.00;;;;;22.05;40.87;101319.91;4974509;28;45380;-63
2021/11/13 07:19:43;;;;;;;;;4.00;2.50;;;;;22.10;40.70;101335.28;4972754;28;45522;-63
2021/11/13 07:22:09;;;;;;;;;1.00;1.00;;;;;22.07;40.88;101330.31;4972488;28;46303;-62
2021/11/13 07:24:34;;;;;;;;;1.75;1.75;;;;;22.07;40.65;101331.16;4971440;28;45564;-63
2021/11/13 07:26:59;;;;;;;;;1.00;1.00;;;;;22.07;40.75;101332.97;4973702;28;46590;-63
2021/11/13 07:29:26;;;;;;;;;2.00;0.25;;;;;22.07;41.20;101327.66;4973276;28;45489;-63
2021/11/13 07:31:52;;;;;;;;;1.50;1.00;;;;;22.08;40.52;101339.94;4972582;28;45435;-63
2021/11/13 07:34:17;;;;;;;;;0.75;0.75;;;;;22.05;40.93;101338.44;4972682;28;45307;-63
2021/11/13 07:36:43;;;;;;;;;1.00;1.00;;;;;22.10;40.97;101353.84;4972724;28;45363;-63
2021/11/13 07:39:08;;;;;;;;;1.00;1.00;;;;;22.07;40.92;101349.69;4972912;28;45579;-63
2021/11/13 07:41:34;;;;;;;;;1.75;1.75;;;;;22.09;40.56;101356.66;4974727;27;45854;-63
2021/11/13 07:43:59;;;;;;;;;2.00;2.00;;;;;22.09;40.79;101357.50;4972659;28;45220;-63
2021/11/13 07:46:26;;;;;;;;;2.00;2.00;;;;;22.11;40.97;101354.66;4972812;28;45537;-63
2021/11/13 07:48:51;;;;;;;;;0.75;0.75;;;;;22.13;40.96;101360.63;4973940;28;45482;-62
2021/11/13 07:51:18;;;;;;;;;1.00;1.00;;;;;22.12;41.01;101359.78;4972147;28;47410;-63
2021/11/13 07:53:44;;;;;;;;;1.00;1.00;;;;;22.07;40.67;101349.69;4974202;28;45497;-63
2021/11/13 07:56:09;;;;;;;;;1.25;1.00;;;;;22.12;40.85;101358.97;4973032;28;45927;-63
2021/11/13 07:58:34;;;;;;;;;2.00;1.25;;;;;22.10;41.02;101364.44;4972660;28;45445;-63
2021/11/13 08:01:00;;;;;;;;;2.00;2.00;;;;;22.11;40.53;101365.28;4972567;28;46286;-63
2021/11/13 08:03:25;;;;;;;;;1.00;1.00;;;;;22.11;40.71;101366.09;4970979;28;45316;-63
2021/11/13 08:05:51;;;;;;;;;2.75;2.75;;;;;22.12;40.89;101369.59;4973245;28;45603;-63
2021/11/13 08:08:16;;;;;;;;;1.50;1.50;;;;;22.10;41.03;101369.75;4972373;28;45498;-63
2021/11/13 08:10:41;;;;;;;;;2.00;2.00;;;;;22.12;40.99;101375.69;4971530;28;45308;-63
2021/11/13 08:13:18;;;;;;;;;1.00;1.00;;;;;22.07;41.03;101373.53;4972498;28;45636;-63
2021/11/13 08:15:44;;;;;;;;;1.75;1.50;;;;;22.10;40.77;101376.84;4990337;28;45493;-63
2021/11/13 08:18:10;;;;;;;;;1.50;1.50;;;;;22.11;40.87;101379.34;4987545;27;45743;-63
2021/11/13 08:20:37;;;;;;;;;1.00;1.00;;;;;22.12;40.76;101382.84;4973674;28;46591;-63
2021/11/13 08:23:09;;;;;;;;;3.00;3.00;;;;;21.92;40.57;101354.84;4972376;28;45324;-63
2021/11/13 08:25:35;;;;;;;;;1.00;1.00;;;;;22.10;40.65;101390.09;4972343;28;45469;-63
2021/11/13 08:28:01;;;;;;;;;1.00;1.00;;;;;22.06;41.19;101385.16;4972071;28;45340;-63
2021/11/13 08:30:28;;;;;;;;;1.00;1.00;;;;;22.10;40.75;101398.06;4972064;28;46128;-63
2021/11/13 08:32:54;;;;;;;;;0.00;0.00;;;;;22.08;40.72;101395.59;4972686;28;45347;-63
2021/11/13 08:35:19;;;;;;;;;1.25;1.00;;;;;22.02;40.55;101386.47;4973463;28;45456;-63
2021/11/13 08:37:45;;;;;;;;;2.00;2.00;;;;;22.05;40.55;101382.66;4971967;28;45519;-63
2021/11/13 08:40:11;;;;;;;;;1.00;1.00;;;;;22.06;40.65;101387.81;4984150;28;47175;-63
2021/11/13 08:42:36;;;;;;;;;3.00;1.00;;;;;22.09;40.56;101397.25;4970549;28;45574;-63
2021/11/13 08:45:03;;;;;;;;;2.00;2.00;;;;;22.09;40.60;101391.94;4972417;28;45571;-63
2021/11/13 08:47:28;;;;;;;;;1.00;1.00;;;;;22.03;40.55;101384.66;4973022;28;45294;-63
2021/11/13 08:49:56;;;;;;;;;2.00;2.00;;;;;22.06;40.96;101403.72;4971260;28;45432;-63
2021/11/13 08:52:22;;;;;;;;;1.00;1.00;;;;;22.09;40.60;101404.38;4971719;28;45490;-63
2021/11/13 08:54:49;;;;;;;;;1.00;1.00;;;;;22.10;40.66;101398.88;4971853;28;45385;-63
2021/11/13 08:57:15;;;;;;;;;1.00;1.00;;;;;22.11;40.82;101402.38;4971849;28;45375;-63
2021/11/13 08:59:41;;;;;;;;;2.75;2.75;;;;;22.10;40.66;101396.22;4974024;28;46213;-63
2021/11/13 09:02:11;;;;;;;;;1.00;1.00;;;;;22.09;40.69;101394.59;4971725;28;45620;-63
2021/11/13 09:04:38;;;;;;;;;1.00;1.00;;;;;22.06;40.85;101400.22;4971566;28;45512;-63
2021/11/13 09:07:06;;;;;;;;;2.75;2.75;;;;;22.06;40.99;101398.41;4971598;28;45671;-63
2021/11/13 09:09:35;;;;;;;;;1.00;1.00;;;;;22.08;41.05;101403.53;4971495;28;46233;-64
2021/11/13 09:12:03;;;;;;;;;1.25;1.25;;;;;22.07;40.74;101402.69;4971736;28;45608;-63
2021/11/13 09:14:32;;;;;;;;;3.00;1.25;;;;;22.10;40.71;101400.69;4973819;28;45621;-63
2021/11/13 09:16:57;;;;;;;;;1.25;1.25;;;;;22.10;41.11;101403.34;4971664;28;47469;-63
2021/11/13 09:19:22;;;;;;;;;2.75;1.75;;;;;22.12;40.64;101398.72;4970734;28;46022;-63
2021/11/13 09:21:48;;;;;;;;;2.00;2.00;;;;;22.12;40.96;101410.13;4969389;28;45366;-63
2021/11/13 09:24:13;;;;;;;;;1.50;1.00;;;;;22.10;41.02;101414.78;4969854;28;45304;-63
2021/11/13 09:26:38;;;;;;;;;1.00;1.00;;;;;22.11;40.70;101419.09;4973768;28;45557;-63
2021/11/13 09:29:05;;;;;;;;;1.00;1.00;;;;;22.09;40.96;101413.16;4971218;28;46369;-63
2021/11/13 09:31:31;;;;;;;;;1.25;1.25;;;;;22.09;40.55;101422.91;4971298;28;45525;-63
2021/11/13 09:33:56;;;;;;;;;1.75;1.50;;;;;22.11;40.99;101428.88;4970848;28;45507;-63
2021/11/13 09:36:23;;;;;;;;;1.00;1.00;;;;;22.12;40.48;101427.88;4971541;28;45295;-63
2021/11/13 09:38:48;;;;;;;;;2.00;1.00;;;;;22.07;41.06;101423.06;4972633;28;46400;-63
2021/11/13 09:41:19;;;;;;;;;1.50;1.00;;;;;22.10;40.57;101443.09;4971916;28;45490;-63
2021/11/13 09:43:45;;;;;;;;;3.00;2.00;;;;;22.07;40.64;101428.38;4971312;28;45597;-64
2021/11/13 09:46:12;;;;;;;;;3.00;1.50;;;;;22.11;41.13;101442.13;4971348;28;45419;-63
2021/11/13 09:48:39;;;;;;;;;3.50;2.00;;;;;22.13;40.80;101448.06;4970728;28;45941;-63
2021/11/13 09:51:06;;;;;;;;;2.00;2.00;;;;;22.14;41.07;101449.75;4971036;28;45416;-63
2021/11/13 09:53:32;;;;;;;;;2.00;2.00;;;;;22.12;40.78;101447.25;4973216;28;45553;-63
2021/11/13 09:55:58;;;;;;;;;1.50;1.00;;;;;22.12;40.85;101452.53;4970974;28;45656;-63
2021/11/13 09:58:24;;;;;;;;;1.50;1.25;;;;;22.12;40.50;101454.38;4970783;28;46492;-63
2021/11/13 10:00:50;;;;;;;;;2.00;2.00;;;;;22.12;40.93;101449.09;4969310;28;45393;-63
2021/11/13 10:03:19;;;;;;;;;1.50;1.50;;;;;22.07;40.84;101438.97;4969436;28;45288;-63
2021/11/13 10:05:54;;;;;;;;;1.00;1.00;;;;;22.12;40.69;101449.88;4972555;28;45434;-63
2021/11/13 10:08:20;;;;;;;;;2.00;2.00;;;;;22.09;41.22;101446.75;4972342;28;46216;-63
2021/11/13 10:10:47;;;;;;;;;2.25;2.25;;;;;22.12;40.53;101459.69;4970588;28;45460;-63
2021/11/13 10:13:44;;;;;;;;;3.00;2.00;;;;;22.11;41.05;101455.38;4970752;28;45495;-63
2021/11/13 10:16:12;;;;;;;;;1.00;1.00;;;;;22.09;41.02;101460.00;4969847;28;45292;-63
2021/11/13 10:18:47;;;;;;;;;1.75;1.75;;;;;22.10;40.50;101459.84;4970557;28;46158;-64
2021/11/13 10:21:19;;;;;;;;;4.00;2.25;;;;;22.08;40.55;101456.53;4954036;28;45559;-63
2021/11/13 10:23:53;;;;;;;;;2.25;1.75;;;;;22.03;40.40;101443.78;4968924;28;45526;-63
2021/11/13 10:26:41;;;;;;;;;2.50;2.00;;;;;22.10;41.20;101462.47;4972078;28;45297;-63
2021/11/13 10:29:12;;;;;;;;;1.00;1.00;;;;;22.11;41.11;101455.38;4968747;28;45461;-63
2021/11/13 10:31:43;;;;;;;;;2.75;2.00;;;;;22.11;40.55;101453.56;4969936;28;45344;-63
2021/11/13 10:34:15;;;;;;;;;1.00;1.00;;;;;22.07;40.80;101447.75;4971778;28;45473;-63
2021/11/13 10:36:47;;;;;;;;;1.75;1.75;;;;;22.09;40.48;101452.91;4973783;28;45389;-64
2021/11/13 10:39:23;;;;;;;;;3.25;1.50;;;;;22.09;41.18;101455.53;4957076;28;46355;-63
2021/11/13 10:41:57;;;;;;;;;2.25;2.00;;;;;22.10;40.66;101451.88;4968038;28;45592;-63
2021/11/13 10:44:31;;;;;;;;;2.50;1.25;;;;;22.11;40.62;101456.19;4963576;28;45377;-63
2021/11/13 10:46:58;;;;;;;;;1.75;1.75;;;;;22.12;40.74;101454.38;4969745;28;45503;-63
2021/11/13 10:49:25;;;;;;;;;4.00;1.00;;;;;22.11;41.12;101450.91;4971948;28;46545;-63
2021/11/13 10:52:00;;;;;;;;;2.50;2.50;;;;;22.12;41.34;101451.75;4973131;28;45338;-63
2021/11/13 10:54:27;;;;;;;;;2.25;2.25;;;;;22.14;41.33;101455.03;4973410;28;45340;-64
2021/11/13 10:56:58;;;;;;;;;3.00;2.00;;;;;22.15;40.69;101454.03;4973278;28;45593;-64
2021/11/13 10:59:44;;;;;;;;;2.25;2.25;;;;;22.04;40.65;101444.63;4974189;28;45452;-64
2021/11/13 11:02:15;;;;;;;;;3.25;1.25;;;;;22.03;41.30;101448.25;4972102;28;45345;-64
2021/11/13 11:04:42;;;;;;;;;2.00;2.00;;;;;22.05;40.68;101451.56;4972618;28;45519;-66
2021/11/13 11:07:15;;;;;;;;;2.00;1.75;;;;;22.09;40.87;101446.75;4973003;28;45353;-66
2021/11/13 11:09:45;;;;;;;;;2.00;2.00;;;;;22.07;40.98;101445.09;4968516;28;45333;-65
2021/11/13 11:12:21;;;;;;;;;2.00;1.50;;;;;22.07;41.29;101446.91;4972432;28;45369;-65
2021/11/13 11:14:52;;;;;;;;;3.75;2.25;;;;;22.09;41.27;101450.25;4971074;28;45433;-65
2021/11/13 11:17:28;;;;;;;;;2.00;2.00;;;;;22.05;41.12;101443.59;4972053;28;48325;-64
2021/11/13 11:19:55;;;;;;;;;2.00;2.00;;;;;22.06;41.21;101443.47;4968996;28;46165;-64
2021/11/13 11:22:28;;;;;;;;;2.50;2.00;;;;;22.09;41.35;101452.06;4971425;28;45418;-64